EHAM/AMS METAR and TAF weather

Enter ICAO airport designator
Station Type Date Time Source
EHAM METAR 2019/08/24 09:55 UTC NOAA

EHAM 240955Z 10004KT CAVOK 25/14 Q1021 NOSIG


Station Type Date Time Source
EHAM Decoded METAR 2019/08/24 09:55 UTC NOAA

Station name not available
Aug 24, 2019 - 05:55 AM EDT / 2019.08.24 0955 UTC
Wind: from the E (100 degrees) at 5 MPH (4 KT):0
Visibility: greater than 7 mile(s):0
Temperature: 77 F (25 C)
Dew Point: 57 F (14 C)
Relative Humidity: 50%
Pressure (altimeter): 30.15 in. Hg (1021 hPa)
ob: EHAM 240955Z 10004KT CAVOK 25/14 Q1021 NOSIG
cycle: 10

Station Type Date Time Source
EHAM TAF 2019/08/24 06:28 UTC NOAA

TAF EHAM 240450Z 2406/2512 05006KT CAVOK
BECMG 2406/2409 11006KT
BECMG 2415/2418 05005KT
BECMG 2506/2509 11006KT

Example: see airport list